sensor_id;sensor_type;location;lat;lon;timestamp;P1;durP1;ratioP1;P2;durP2;ratioP2
11572;SDS011;5842;52.426;4.886;2023-08-30T01:43:41;9.77;;;7.60;;
11572;SDS011;5842;52.426;4.886;2023-08-30T01:46:10;9.85;;;7.57;;
11572;SDS011;5842;52.426;4.886;2023-08-30T01:48:37;10.38;;;7.15;;
11572;SDS011;5842;52.426;4.886;2023-08-30T01:51:05;9.60;;;7.30;;
11572;SDS011;5842;52.426;4.886;2023-08-30T01:58:28;9.40;;;7.35;;
11572;SDS011;5842;52.426;4.886;2023-08-30T02:00:57;10.52;;;7.80;;
11572;SDS011;5842;52.426;4.886;2023-08-30T02:03:27;10.02;;;8.05;;
11572;SDS011;5842;52.426;4.886;2023-08-30T02:05:57;14.20;;;12.77;;
11572;SDS011;5842;52.426;4.886;2023-08-30T02:08:30;10.63;;;8.35;;
11572;SDS011;5842;52.426;4.886;2023-08-30T02:11:01;11.57;;;8.53;;
11572;SDS011;5842;52.426;4.886;2023-08-30T02:13:31;10.15;;;8.25;;
11572;SDS011;5842;52.426;4.886;2023-08-30T02:16:01;13.57;;;9.48;;
11572;SDS011;5842;52.426;4.886;2023-08-30T02:18:29;13.90;;;10.32;;
11572;SDS011;5842;52.426;4.886;2023-08-30T02:20:56;12.30;;;9.65;;
11572;SDS011;5842;52.426;4.886;2023-08-30T02:23:24;13.60;;;9.20;;
11572;SDS011;5842;52.426;4.886;2023-08-30T02:25:53;13.63;;;10.35;;
11572;SDS011;5842;52.426;4.886;2023-08-30T02:28:21;14.20;;;9.70;;
11572;SDS011;5842;52.426;4.886;2023-08-30T02:30:52;12.40;;;9.63;;
11572;SDS011;5842;52.426;4.886;2023-08-30T02:33:21;14.55;;;9.38;;
11572;SDS011;5842;52.426;4.886;2023-08-30T02:35:49;16.13;;;10.18;;
11572;SDS011;5842;52.426;4.886;2023-08-30T02:38:18;15.57;;;10.45;;
11572;SDS011;5842;52.426;4.886;2023-08-30T02:40:46;12.38;;;9.98;;
11572;SDS011;5842;52.426;4.886;2023-08-30T02:43:14;13.57;;;9.90;;
11572;SDS011;5842;52.426;4.886;2023-08-30T02:45:41;14.73;;;9.82;;
11572;SDS011;5842;52.426;4.886;2023-08-30T02:48:08;12.00;;;9.10;;
11572;SDS011;5842;52.426;4.886;2023-08-30T02:50:38;11.38;;;8.95;;
11572;SDS011;5842;52.426;4.886;2023-08-30T02:53:06;12.85;;;9.13;;
11572;SDS011;5842;52.426;4.886;2023-08-30T02:55:34;11.82;;;8.30;;
11572;SDS011;5842;52.426;4.886;2023-08-30T02:58:01;12.88;;;9.00;;
11572;SDS011;5842;52.426;4.886;2023-08-30T03:00:29;13.30;;;9.80;;
11572;SDS011;5842;52.426;4.886;2023-08-30T03:02:56;10.90;;;8.75;;
11572;SDS011;5842;52.426;4.886;2023-08-30T03:05:24;11.23;;;8.77;;
11572;SDS011;5842;52.426;4.886;2023-08-30T03:07:53;14.55;;;9.82;;
11572;SDS011;5842;52.426;4.886;2023-08-30T03:10:21;12.60;;;9.00;;
11572;SDS011;5842;52.426;4.886;2023-08-30T03:12:49;12.00;;;9.35;;
11572;SDS011;5842;52.426;4.886;2023-08-30T03:15:17;14.57;;;10.37;;
11572;SDS011;5842;52.426;4.886;2023-08-30T03:17:44;15.05;;;9.68;;
11572;SDS011;5842;52.426;4.886;2023-08-30T03:20:12;13.13;;;9.93;;
11572;SDS011;5842;52.426;4.886;2023-08-30T03:22:41;15.55;;;10.68;;
11572;SDS011;5842;52.426;4.886;2023-08-30T03:25:10;12.95;;;9.73;;
11572;SDS011;5842;52.426;4.886;2023-08-30T03:27:37;18.05;;;11.05;;
11572;SDS011;5842;52.426;4.886;2023-08-30T03:30:05;14.23;;;10.57;;
11572;SDS011;5842;52.426;4.886;2023-08-30T03:32:33;15.05;;;10.40;;
11572;SDS011;5842;52.426;4.886;2023-08-30T03:35:02;15.77;;;10.85;;
11572;SDS011;5842;52.426;4.886;2023-08-30T03:37:30;14.25;;;10.68;;
11572;SDS011;5842;52.426;4.886;2023-08-30T03:39:57;14.80;;;10.90;;
11572;SDS011;5842;52.426;4.886;2023-08-30T03:42:26;15.60;;;11.00;;
11572;SDS011;5842;52.426;4.886;2023-08-30T03:44:53;16.23;;;11.88;;
11572;SDS011;5842;52.426;4.886;2023-08-30T03:47:21;17.05;;;11.70;;
11572;SDS011;5842;52.426;4.886;2023-08-30T03:49:48;16.65;;;11.15;;
11572;SDS011;5842;52.426;4.886;2023-08-30T03:52:16;15.38;;;11.35;;
11572;SDS011;5842;52.426;4.886;2023-08-30T03:54:44;16.63;;;11.55;;
11572;SDS011;5842;52.426;4.886;2023-08-30T03:57:12;16.45;;;11.40;;
11572;SDS011;5842;52.426;4.886;2023-08-30T03:59:40;13.88;;;10.80;;
11572;SDS011;5842;52.426;4.886;2023-08-30T04:02:08;16.65;;;12.27;;
11572;SDS011;5842;52.426;4.886;2023-08-30T04:04:35;16.75;;;12.07;;
11572;SDS011;5842;52.426;4.886;2023-08-30T04:07:03;18.05;;;11.80;;
11572;SDS011;5842;52.426;4.886;2023-08-30T04:09:30;16.85;;;11.98;;
11572;SDS011;5842;52.426;4.886;2023-08-30T04:11:57;17.60;;;12.48;;
11572;SDS011;5842;52.426;4.886;2023-08-30T04:14:25;16.63;;;12.50;;
11572;SDS011;5842;52.426;4.886;2023-08-30T04:16:54;18.30;;;12.82;;
11572;SDS011;5842;52.426;4.886;2023-08-30T04:19:22;17.67;;;12.73;;
11572;SDS011;5842;52.426;4.886;2023-08-30T04:21:49;16.80;;;12.52;;
11572;SDS011;5842;52.426;4.886;2023-08-30T04:24:17;16.48;;;12.50;;
11572;SDS011;5842;52.426;4.886;2023-08-30T04:26:44;18.43;;;13.03;;
11572;SDS011;5842;52.426;4.886;2023-08-30T04:29:15;17.10;;;12.00;;
11572;SDS011;5842;52.426;4.886;2023-08-30T04:31:42;17.20;;;12.32;;
11572;SDS011;5842;52.426;4.886;2023-08-30T04:34:14;17.98;;;12.88;;
11572;SDS011;5842;52.426;4.886;2023-08-30T04:36:42;20.80;;;12.60;;
11572;SDS011;5842;52.426;4.886;2023-08-30T04:39:10;16.85;;;12.68;;
11572;SDS011;5842;52.426;4.886;2023-08-30T04:41:38;17.67;;;12.75;;
11572;SDS011;5842;52.426;4.886;2023-08-30T04:44:06;18.70;;;13.00;;
11572;SDS011;5842;52.426;4.886;2023-08-30T04:46:33;16.23;;;12.30;;
11572;SDS011;5842;52.426;4.886;2023-08-30T04:49:01;18.15;;;12.90;;
11572;SDS011;5842;52.426;4.886;2023-08-30T04:51:30;18.37;;;12.37;;
11572;SDS011;5842;52.426;4.886;2023-08-30T04:53:57;19.02;;;12.52;;
11572;SDS011;5842;52.426;4.886;2023-08-30T04:56:28;16.27;;;12.23;;
11572;SDS011;5842;52.426;4.886;2023-08-30T04:58:55;18.10;;;11.55;;
11572;SDS011;5842;52.426;4.886;2023-08-30T05:01:23;17.42;;;12.00;;
11572;SDS011;5842;52.426;4.886;2023-08-30T05:03:51;23.75;;;21.25;;
11572;SDS011;5842;52.426;4.886;2023-08-30T05:06:18;33.90;;;29.67;;
11572;SDS011;5842;52.426;4.886;2023-08-30T05:08:47;16.02;;;11.77;;
11572;SDS011;5842;52.426;4.886;2023-08-30T05:11:14;87.70;;;57.58;;
11572;SDS011;5842;52.426;4.886;2023-08-30T05:13:42;99.13;;;55.45;;
11572;SDS011;5842;52.426;4.886;2023-08-30T05:16:09;103.50;;;56.67;;
11572;SDS011;5842;52.426;4.886;2023-08-30T05:18:37;78.38;;;55.65;;
11572;SDS011;5842;52.426;4.886;2023-08-30T05:21:04;96.88;;;59.25;;
11572;SDS011;5842;52.426;4.886;2023-08-30T05:23:32;102.93;;;57.63;;
11572;SDS011;5842;52.426;4.886;2023-08-30T05:26:00;24.23;;;21.83;;
11572;SDS011;5842;52.426;4.886;2023-08-30T05:28:28;52.95;;;47.78;;
11572;SDS011;5842;52.426;4.886;2023-08-30T05:30:56;80.65;;;61.97;;
11572;SDS011;5842;52.426;4.886;2023-08-30T05:33:24;74.10;;;63.07;;
11572;SDS011;5842;52.426;4.886;2023-08-30T05:35:51;103.72;;;58.53;;
11572;SDS011;5842;52.426;4.886;2023-08-30T05:38:19;88.83;;;57.60;;
11572;SDS011;5842;52.426;4.886;2023-08-30T05:40:46;21.42;;;16.77;;
11572;SDS011;5842;52.426;4.886;2023-08-30T05:43:15;22.92;;;20.33;;
11572;SDS011;5842;52.426;4.886;2023-08-30T05:45:43;16.98;;;12.52;;
11572;SDS011;5842;52.426;4.886;2023-08-30T05:48:10;16.52;;;11.35;;
11572;SDS011;5842;52.426;4.886;2023-08-30T05:50:38;69.82;;;59.35;;
11572;SDS011;5842;52.426;4.886;2023-08-30T05:53:06;105.53;;;59.28;;
11572;SDS011;5842;52.426;4.886;2023-08-30T05:55:33;92.00;;;59.47;;
11572;SDS011;5842;52.426;4.886;2023-08-30T05:58:02;103.83;;;56.27;;
11572;SDS011;5842;52.426;4.886;2023-08-30T06:00:31;99.75;;;54.00;;
11572;SDS011;5842;52.426;4.886;2023-08-30T06:02:58;101.93;;;54.75;;
11572;SDS011;5842;52.426;4.886;2023-08-30T06:05:26;102.78;;;55.20;;
11572;SDS011;5842;52.426;4.886;2023-08-30T06:07:53;103.20;;;55.03;;
11572;SDS011;5842;52.426;4.886;2023-08-30T06:10:21;105.18;;;55.70;;
11572;SDS011;5842;52.426;4.886;2023-08-30T06:12:48;92.20;;;59.17;;
11572;SDS011;5842;52.426;4.886;2023-08-30T06:15:18;103.38;;;56.22;;
11572;SDS011;5842;52.426;4.886;2023-08-30T06:17:47;105.37;;;55.60;;
11572;SDS011;5842;52.426;4.886;2023-08-30T06:20:15;106.00;;;55.50;;
11572;SDS011;5842;52.426;4.886;2023-08-30T06:22:42;106.53;;;55.90;;
11572;SDS011;5842;52.426;4.886;2023-08-30T06:25:10;109.20;;;57.73;;
11572;SDS011;5842;52.426;4.886;2023-08-30T06:27:41;107.20;;;56.20;;
11572;SDS011;5842;52.426;4.886;2023-08-30T06:30:09;111.20;;;57.47;;
11572;SDS011;5842;52.426;4.886;2023-08-30T06:32:37;112.38;;;57.03;;
11572;SDS011;5842;52.426;4.886;2023-08-30T06:35:06;109.82;;;57.03;;
11572;SDS011;5842;52.426;4.886;2023-08-30T06:37:34;109.53;;;56.67;;
11572;SDS011;5842;52.426;4.886;2023-08-30T06:40:01;109.87;;;57.93;;
11572;SDS011;5842;52.426;4.886;2023-08-30T06:42:29;109.35;;;57.03;;
11572;SDS011;5842;52.426;4.886;2023-08-30T06:44:56;108.45;;;56.30;;
11572;SDS011;5842;52.426;4.886;2023-08-30T06:47:24;107.23;;;54.83;;
11572;SDS011;5842;52.426;4.886;2023-08-30T06:49:51;107.60;;;57.10;;
11572;SDS011;5842;52.426;4.886;2023-08-30T06:52:20;107.60;;;55.38;;
11572;SDS011;5842;52.426;4.886;2023-08-30T06:54:48;101.50;;;54.80;;
11572;SDS011;5842;52.426;4.886;2023-08-30T06:57:15;107.15;;;55.60;;
11572;SDS011;5842;52.426;4.886;2023-08-30T06:59:43;106.93;;;55.13;;
11572;SDS011;5842;52.426;4.886;2023-08-30T07:02:10;104.50;;;55.80;;
11572;SDS011;5842;52.426;4.886;2023-08-30T07:04:39;103.75;;;56.30;;
11572;SDS011;5842;52.426;4.886;2023-08-30T07:07:06;84.65;;;56.90;;
11572;SDS011;5842;52.426;4.886;2023-08-30T07:09:35;101.22;;;57.97;;
11572;SDS011;5842;52.426;4.886;2023-08-30T07:12:03;108.03;;;59.35;;
11572;SDS011;5842;52.426;4.886;2023-08-30T07:14:30;110.85;;;57.45;;
11572;SDS011;5842;52.426;4.886;2023-08-30T07:16:58;111.82;;;58.08;;
11572;SDS011;5842;52.426;4.886;2023-08-30T07:19:25;93.30;;;62.33;;
11572;SDS011;5842;52.426;4.886;2023-08-30T07:21:53;113.03;;;61.17;;
11572;SDS011;5842;52.426;4.886;2023-08-30T07:24:20;108.88;;;61.97;;
11572;SDS011;5842;52.426;4.886;2023-08-30T07:44:44;30.60;;;24.65;;
11572;SDS011;5842;52.426;4.886;2023-08-30T07:47:12;32.35;;;26.58;;
11572;SDS011;5842;52.426;4.886;2023-08-30T07:49:40;32.53;;;28.33;;
11572;SDS011;5842;52.426;4.886;2023-08-30T07:52:07;36.85;;;33.05;;
11572;SDS011;5842;52.426;4.886;2023-08-30T07:57:03;15.73;;;12.33;;
11572;SDS011;5842;52.426;4.886;2023-08-30T07:59:32;15.03;;;11.73;;
11572;SDS011;5842;52.426;4.886;2023-08-30T08:02:02;14.90;;;11.50;;
11572;SDS011;5842;52.426;4.886;2023-08-30T08:04:31;14.90;;;12.00;;
11572;SDS011;5842;52.426;4.886;2023-08-30T08:06:58;15.00;;;12.13;;
11572;SDS011;5842;52.426;4.886;2023-08-30T08:09:26;14.60;;;12.68;;
11572;SDS011;5842;52.426;4.886;2023-08-30T08:11:53;14.23;;;12.13;;
11572;SDS011;5842;52.426;4.886;2023-08-30T08:14:21;14.35;;;11.95;;
11572;SDS011;5842;52.426;4.886;2023-08-30T08:16:49;14.07;;;11.90;;
11572;SDS011;5842;52.426;4.886;2023-08-30T08:19:18;13.25;;;11.20;;
11572;SDS011;5842;52.426;4.886;2023-08-30T08:21:46;62.15;;;56.03;;
11572;SDS011;5842;52.426;4.886;2023-08-30T08:24:14;12.60;;;10.70;;
11572;SDS011;5842;52.426;4.886;2023-08-30T08:26:41;12.70;;;10.50;;
11572;SDS011;5842;52.426;4.886;2023-08-30T08:29:09;11.55;;;10.35;;
11572;SDS011;5842;52.426;4.886;2023-08-30T08:31:36;11.30;;;10.00;;
11572;SDS011;5842;52.426;4.886;2023-08-30T08:34:07;11.25;;;9.75;;
11572;SDS011;5842;52.426;4.886;2023-08-30T08:36:38;11.32;;;9.88;;
11572;SDS011;5842;52.426;4.886;2023-08-30T08:39:05;12.05;;;9.68;;
11572;SDS011;5842;52.426;4.886;2023-08-30T08:41:35;11.10;;;9.30;;
11572;SDS011;5842;52.426;4.886;2023-08-30T08:44:03;9.93;;;8.87;;
11572;SDS011;5842;52.426;4.886;2023-08-30T08:46:31;11.18;;;9.40;;
11572;SDS011;5842;52.426;4.886;2023-08-30T08:48:59;10.63;;;9.00;;
11572;SDS011;5842;52.426;4.886;2023-08-30T08:51:28;10.10;;;8.70;;
11572;SDS011;5842;52.426;4.886;2023-08-30T08:53:59;9.95;;;8.45;;
11572;SDS011;5842;52.426;4.886;2023-08-30T08:56:29;8.67;;;7.70;;
11572;SDS011;5842;52.426;4.886;2023-08-30T08:58:57;10.30;;;8.50;;
11572;SDS011;5842;52.426;4.886;2023-08-30T09:01:25;10.27;;;8.60;;
11572;SDS011;5842;52.426;4.886;2023-08-30T09:03:52;10.80;;;9.35;;
11572;SDS011;5842;52.426;4.886;2023-08-30T09:06:20;13.35;;;10.77;;
11572;SDS011;5842;52.426;4.886;2023-08-30T09:08:48;12.40;;;9.50;;
11572;SDS011;5842;52.426;4.886;2023-08-30T09:11:17;11.00;;;9.60;;
11572;SDS011;5842;52.426;4.886;2023-08-30T09:13:45;11.95;;;9.25;;
11572;SDS011;5842;52.426;4.886;2023-08-30T09:16:13;10.02;;;7.72;;
11572;SDS011;5842;52.426;4.886;2023-08-30T09:18:41;9.05;;;7.90;;
11572;SDS011;5842;52.426;4.886;2023-08-30T09:21:09;9.10;;;7.70;;
11572;SDS011;5842;52.426;4.886;2023-08-30T09:23:36;8.90;;;8.00;;
11572;SDS011;5842;52.426;4.886;2023-08-30T11:38:49;8.75;;;2.50;;
11572;SDS011;5842;52.426;4.886;2023-08-30T11:41:17;6.65;;;2.40;;
11572;SDS011;5842;52.426;4.886;2023-08-30T11:53:33;6.65;;;2.50;;
11572;SDS011;5842;52.426;4.886;2023-08-30T12:03:25;65.60;;;59.70;;
11572;SDS011;5842;52.426;4.886;2023-08-30T12:08:20;6.05;;;2.22;;
11572;SDS011;5842;52.426;4.886;2023-08-30T12:25:33;21.63;;;19.10;;
11572;SDS011;5842;52.426;4.886;2023-08-30T12:28:00;26.60;;;24.70;;
11572;SDS011;5842;52.426;4.886;2023-08-30T12:30:28;7.90;;;5.80;;
11572;SDS011;5842;52.426;4.886;2023-08-30T12:37:52;10.20;;;8.50;;
11572;SDS011;5842;52.426;4.886;2023-08-30T12:40:21;6.47;;;5.93;;
11572;SDS011;5842;52.426;4.886;2023-08-30T12:45:17;4.30;;;1.70;;
11572;SDS011;5842;52.426;4.886;2023-08-30T12:47:45;6.17;;;1.90;;
11572;SDS011;5842;52.426;4.886;2023-08-30T12:50:12;4.40;;;1.70;;
11572;SDS011;5842;52.426;4.886;2023-08-30T12:55:07;5.03;;;1.98;;
11572;SDS011;5842;52.426;4.886;2023-08-30T12:57:35;4.90;;;2.00;;
11572;SDS011;5842;52.426;4.886;2023-08-30T14:26:00;6.25;;;2.00;;
11572;SDS011;5842;52.426;4.886;2023-08-30T14:28:28;5.70;;;2.17;;
11572;SDS011;5842;52.426;4.886;2023-08-30T14:33:23;4.97;;;2.17;;
11572;SDS011;5842;52.426;4.886;2023-08-30T14:35:50;5.70;;;2.00;;
11572;SDS011;5842;52.426;4.886;2023-08-30T14:48:08;3.15;;;1.50;;
11572;SDS011;5842;52.426;4.886;2023-08-30T14:50:36;5.50;;;1.67;;
11572;SDS011;5842;52.426;4.886;2023-08-30T14:53:03;5.50;;;1.95;;
11572;SDS011;5842;52.426;4.886;2023-08-30T15:54:35;4.97;;;1.73;;
11572;SDS011;5842;52.426;4.886;2023-08-30T15:59:29;4.63;;;1.60;;
11572;SDS011;5842;52.426;4.886;2023-08-30T16:01:57;6.18;;;1.77;;
11572;SDS011;5842;52.426;4.886;2023-08-30T16:04:24;5.20;;;1.80;;
11572;SDS011;5842;52.426;4.886;2023-08-30T16:06:52;5.65;;;1.85;;
11572;SDS011;5842;52.426;4.886;2023-08-30T16:09:19;6.53;;;1.88;;
11572;SDS011;5842;52.426;4.886;2023-08-30T16:11:48;4.70;;;1.70;;
11572;SDS011;5842;52.426;4.886;2023-08-30T16:21:37;3.97;;;1.58;;
11572;SDS011;5842;52.426;4.886;2023-08-30T16:24:05;5.18;;;1.98;;
11572;SDS011;5842;52.426;4.886;2023-08-30T16:29:02;8.38;;;3.08;;
11572;SDS011;5842;52.426;4.886;2023-08-30T16:31:29;6.43;;;1.77;;
11572;SDS011;5842;52.426;4.886;2023-08-30T16:34:00;6.18;;;1.98;;
11572;SDS011;5842;52.426;4.886;2023-08-30T16:36:28;8.03;;;2.43;;
11572;SDS011;5842;52.426;4.886;2023-08-30T16:38:55;5.13;;;1.67;;
11572;SDS011;5842;52.426;4.886;2023-08-30T16:41:23;6.18;;;1.83;;
11572;SDS011;5842;52.426;4.886;2023-08-30T16:43:50;4.57;;;1.60;;
11572;SDS011;5842;52.426;4.886;2023-08-30T16:46:19;6.30;;;1.60;;
11572;SDS011;5842;52.426;4.886;2023-08-30T16:48:47;6.05;;;1.80;;
11572;SDS011;5842;52.426;4.886;2023-08-30T16:51:14;5.00;;;2.00;;
11572;SDS011;5842;52.426;4.886;2023-08-30T16:53:42;4.90;;;1.90;;
11572;SDS011;5842;52.426;4.886;2023-08-30T16:56:09;4.28;;;1.80;;
11572;SDS011;5842;52.426;4.886;2023-08-30T16:58:36;3.85;;;1.70;;
11572;SDS011;5842;52.426;4.886;2023-08-30T17:01:07;46.38;;;38.42;;
11572;SDS011;5842;52.426;4.886;2023-08-30T17:03:36;5.80;;;2.00;;
11572;SDS011;5842;52.426;4.886;2023-08-30T17:06:03;7.68;;;2.30;;
11572;SDS011;5842;52.426;4.886;2023-08-30T17:08:31;5.45;;;1.83;;
11572;SDS011;5842;52.426;4.886;2023-08-30T17:11:02;5.70;;;1.90;;
11572;SDS011;5842;52.426;4.886;2023-08-30T17:15:57;5.73;;;1.87;;
11572;SDS011;5842;52.426;4.886;2023-08-30T17:18:27;6.78;;;1.75;;
11572;SDS011;5842;52.426;4.886;2023-08-30T17:20:58;6.72;;;2.00;;
11572;SDS011;5842;52.426;4.886;2023-08-30T17:23:25;4.47;;;1.67;;
11572;SDS011;5842;52.426;4.886;2023-08-30T17:25:52;4.83;;;1.70;;
11572;SDS011;5842;52.426;4.886;2023-08-30T17:28:20;7.70;;;1.85;;
11572;SDS011;5842;52.426;4.886;2023-08-30T17:30:48;5.47;;;1.80;;
11572;SDS011;5842;52.426;4.886;2023-08-30T17:33:16;7.53;;;1.92;;
11572;SDS011;5842;52.426;4.886;2023-08-30T17:35:44;4.80;;;1.80;;
11572;SDS011;5842;52.426;4.886;2023-08-30T17:38:13;6.32;;;1.98;;
11572;SDS011;5842;52.426;4.886;2023-08-30T17:40:43;7.22;;;2.00;;
11572;SDS011;5842;52.426;4.886;2023-08-30T17:43:11;7.78;;;2.10;;
11572;SDS011;5842;52.426;4.886;2023-08-30T17:45:38;17.45;;;15.75;;
11572;SDS011;5842;52.426;4.886;2023-08-30T17:48:07;7.30;;;2.70;;
11572;SDS011;5842;52.426;4.886;2023-08-30T17:50:35;4.70;;;1.73;;
11572;SDS011;5842;52.426;4.886;2023-08-30T17:53:02;5.18;;;1.80;;
11572;SDS011;5842;52.426;4.886;2023-08-30T17:55:31;7.03;;;4.38;;
11572;SDS011;5842;52.426;4.886;2023-08-30T17:57:59;5.75;;;2.33;;
11572;SDS011;5842;52.426;4.886;2023-08-30T18:02:56;6.22;;;2.25;;
11572;SDS011;5842;52.426;4.886;2023-08-30T18:05:24;7.80;;;2.00;;
11572;SDS011;5842;52.426;4.886;2023-08-30T18:07:51;8.13;;;1.85;;
11572;SDS011;5842;52.426;4.886;2023-08-30T18:10:21;6.32;;;2.05;;
11572;SDS011;5842;52.426;4.886;2023-08-30T18:12:50;5.93;;;2.10;;
11572;SDS011;5842;52.426;4.886;2023-08-30T18:15:17;6.72;;;2.00;;
11572;SDS011;5842;52.426;4.886;2023-08-30T18:17:45;4.35;;;1.75;;
11572;SDS011;5842;52.426;4.886;2023-08-30T18:20:12;6.75;;;1.85;;
11572;SDS011;5842;52.426;4.886;2023-08-30T18:22:40;4.28;;;1.77;;
11572;SDS011;5842;52.426;4.886;2023-08-30T18:25:10;3.38;;;1.65;;
11572;SDS011;5842;52.426;4.886;2023-08-30T18:27:38;7.40;;;2.00;;
11572;SDS011;5842;52.426;4.886;2023-08-30T18:30:07;5.20;;;1.85;;
11572;SDS011;5842;52.426;4.886;2023-08-30T18:32:35;5.13;;;1.70;;
11572;SDS011;5842;52.426;4.886;2023-08-30T18:35:03;5.53;;;1.70;;
11572;SDS011;5842;52.426;4.886;2023-08-30T18:37:30;5.28;;;1.95;;
11572;SDS011;5842;52.426;4.886;2023-08-30T18:39:58;4.85;;;1.92;;
11572;SDS011;5842;52.426;4.886;2023-08-30T18:42:25;4.50;;;1.70;;
11572;SDS011;5842;52.426;4.886;2023-08-30T18:44:53;32.95;;;29.42;;
11572;SDS011;5842;52.426;4.886;2023-08-30T18:47:22;11.03;;;9.90;;
11572;SDS011;5842;52.426;4.886;2023-08-30T18:49:51;8.37;;;2.17;;
11572;SDS011;5842;52.426;4.886;2023-08-30T18:52:19;4.53;;;1.70;;
11572;SDS011;5842;52.426;4.886;2023-08-30T18:54:46;5.47;;;1.80;;
11572;SDS011;5842;52.426;4.886;2023-08-30T18:57:14;6.72;;;2.20;;
11572;SDS011;5842;52.426;4.886;2023-08-30T18:59:41;4.78;;;1.50;;
11572;SDS011;5842;52.426;4.886;2023-08-30T19:02:09;6.28;;;1.60;;
11572;SDS011;5842;52.426;4.886;2023-08-30T19:04:39;5.43;;;1.65;;
11572;SDS011;5842;52.426;4.886;2023-08-30T19:07:07;27.25;;;21.95;;
11572;SDS011;5842;52.426;4.886;2023-08-30T19:09:35;47.08;;;39.28;;
11572;SDS011;5842;52.426;4.886;2023-08-30T19:12:03;5.15;;;2.00;;
11572;SDS011;5842;52.426;4.886;2023-08-30T19:14:31;7.32;;;3.35;;
11572;SDS011;5842;52.426;4.886;2023-08-30T19:16:58;8.33;;;6.50;;
11572;SDS011;5842;52.426;4.886;2023-08-30T19:19:25;15.32;;;13.93;;
11572;SDS011;5842;52.426;4.886;2023-08-30T19:21:54;4.35;;;1.75;;
11572;SDS011;5842;52.426;4.886;2023-08-30T19:24:22;3.55;;;1.63;;
11572;SDS011;5842;52.426;4.886;2023-08-30T19:26:49;5.10;;;1.83;;
11572;SDS011;5842;52.426;4.886;2023-08-30T19:29:19;40.13;;;35.97;;
11572;SDS011;5842;52.426;4.886;2023-08-30T19:31:46;23.75;;;19.50;;
11572;SDS011;5842;52.426;4.886;2023-08-30T19:34:14;4.13;;;1.67;;
11572;SDS011;5842;52.426;4.886;2023-08-30T19:36:42;5.60;;;1.50;;
11572;SDS011;5842;52.426;4.886;2023-08-30T19:39:11;6.80;;;1.80;;
11572;SDS011;5842;52.426;4.886;2023-08-30T19:41:38;4.45;;;1.70;;
11572;SDS011;5842;52.426;4.886;2023-08-30T19:44:06;8.37;;;1.67;;
11572;SDS011;5842;52.426;4.886;2023-08-30T19:46:33;16.48;;;13.40;;
11572;SDS011;5842;52.426;4.886;2023-08-30T19:49:00;7.43;;;5.18;;
11572;SDS011;5842;52.426;4.886;2023-08-30T19:51:28;44.22;;;39.53;;
11572;SDS011;5842;52.426;4.886;2023-08-30T19:53:56;39.00;;;34.53;;
11572;SDS011;5842;52.426;4.886;2023-08-30T19:56:25;6.40;;;1.80;;
11572;SDS011;5842;52.426;4.886;2023-08-30T19:58:52;34.75;;;31.48;;
11572;SDS011;5842;52.426;4.886;2023-08-30T20:01:19;70.45;;;47.10;;
11572;SDS011;5842;52.426;4.886;2023-08-30T20:03:47;8.45;;;7.55;;
11572;SDS011;5842;52.426;4.886;2023-08-30T20:06:16;15.40;;;11.68;;
11572;SDS011;5842;52.426;4.886;2023-08-30T20:08:43;28.27;;;25.70;;
11572;SDS011;5842;52.426;4.886;2023-08-30T20:11:11;6.03;;;2.27;;
11572;SDS011;5842;52.426;4.886;2023-08-30T20:13:40;4.35;;;1.55;;
11572;SDS011;5842;52.426;4.886;2023-08-30T20:16:07;5.03;;;1.57;;
11572;SDS011;5842;52.426;4.886;2023-08-30T20:18:35;5.70;;;1.70;;
11572;SDS011;5842;52.426;4.886;2023-08-30T20:21:03;4.78;;;1.58;;
11572;SDS011;5842;52.426;4.886;2023-08-30T20:23:30;5.55;;;1.73;;
11572;SDS011;5842;52.426;4.886;2023-08-30T20:25:58;5.00;;;1.40;;
11572;SDS011;5842;52.426;4.886;2023-08-30T20:28:25;65.25;;;39.63;;
11572;SDS011;5842;52.426;4.886;2023-08-30T20:30:54;81.30;;;48.42;;
11572;SDS011;5842;52.426;4.886;2023-08-30T20:33:22;83.00;;;51.30;;
11572;SDS011;5842;52.426;4.886;2023-08-30T20:35:51;68.43;;;50.20;;
11572;SDS011;5842;52.426;4.886;2023-08-30T20:38:19;5.32;;;4.13;;
11572;SDS011;5842;52.426;4.886;2023-08-30T20:40:47;5.70;;;4.30;;
11572;SDS011;5842;52.426;4.886;2023-08-30T20:43:14;11.25;;;9.05;;
11572;SDS011;5842;52.426;4.886;2023-08-30T20:45:45;5.32;;;1.60;;
11572;SDS011;5842;52.426;4.886;2023-08-30T20:48:14;4.20;;;1.80;;
11572;SDS011;5842;52.426;4.886;2023-08-30T20:50:41;4.22;;;1.60;;
11572;SDS011;5842;52.426;4.886;2023-08-30T20:53:08;4.78;;;1.90;;
11572;SDS011;5842;52.426;4.886;2023-08-30T20:55:40;5.13;;;1.60;;
11572;SDS011;5842;52.426;4.886;2023-08-30T20:58:08;5.15;;;1.83;;
11572;SDS011;5842;52.426;4.886;2023-08-30T21:00:35;6.35;;;1.70;;
11572;SDS011;5842;52.426;4.886;2023-08-30T21:03:03;5.35;;;2.03;;
11572;SDS011;5842;52.426;4.886;2023-08-30T21:05:32;5.10;;;1.75;;
11572;SDS011;5842;52.426;4.886;2023-08-30T21:08:01;4.93;;;1.90;;
11572;SDS011;5842;52.426;4.886;2023-08-30T21:10:29;4.38;;;1.83;;
11572;SDS011;5842;52.426;4.886;2023-08-30T21:12:58;5.15;;;1.77;;
11572;SDS011;5842;52.426;4.886;2023-08-30T21:15:27;5.78;;;1.90;;
11572;SDS011;5842;52.426;4.886;2023-08-30T21:17:54;4.73;;;1.80;;
11572;SDS011;5842;52.426;4.886;2023-08-30T21:20:22;4.75;;;1.92;;
11572;SDS011;5842;52.426;4.886;2023-08-30T21:22:51;4.75;;;1.70;;
11572;SDS011;5842;52.426;4.886;2023-08-30T21:25:18;5.47;;;1.70;;
11572;SDS011;5842;52.426;4.886;2023-08-30T21:27:46;5.85;;;1.90;;
11572;SDS011;5842;52.426;4.886;2023-08-30T21:30:14;4.88;;;1.90;;
11572;SDS011;5842;52.426;4.886;2023-08-30T21:32:41;6.32;;;1.83;;
11572;SDS011;5842;52.426;4.886;2023-08-30T21:35:12;5.43;;;1.90;;
11572;SDS011;5842;52.426;4.886;2023-08-30T21:37:39;5.03;;;2.20;;
11572;SDS011;5842;52.426;4.886;2023-08-30T21:40:09;4.43;;;1.80;;
11572;SDS011;5842;52.426;4.886;2023-08-30T21:42:37;4.47;;;2.08;;
11572;SDS011;5842;52.426;4.886;2023-08-30T21:45:05;6.95;;;2.28;;
11572;SDS011;5842;52.426;4.886;2023-08-30T21:47:32;6.18;;;2.28;;
11572;SDS011;5842;52.426;4.886;2023-08-30T21:50:03;5.72;;;2.10;;
11572;SDS011;5842;52.426;4.886;2023-08-30T21:52:31;6.75;;;2.28;;
11572;SDS011;5842;52.426;4.886;2023-08-30T21:54:58;5.15;;;2.10;;
11572;SDS011;5842;52.426;4.886;2023-08-30T21:57:28;4.55;;;2.30;;
11572;SDS011;5842;52.426;4.886;2023-08-30T21:59:55;21.55;;;16.73;;
11572;SDS011;5842;52.426;4.886;2023-08-30T22:02:23;4.22;;;2.05;;
11572;SDS011;5842;52.426;4.886;2023-08-30T22:04:51;3.55;;;2.15;;
11572;SDS011;5842;52.426;4.886;2023-08-30T22:07:18;5.18;;;2.10;;
11572;SDS011;5842;52.426;4.886;2023-08-30T22:09:46;6.67;;;2.60;;
11572;SDS011;5842;52.426;4.886;2023-08-30T22:12:14;6.57;;;2.55;;
11572;SDS011;5842;52.426;4.886;2023-08-30T22:14:43;4.80;;;2.05;;
11572;SDS011;5842;52.426;4.886;2023-08-30T22:17:11;4.15;;;1.95;;
11572;SDS011;5842;52.426;4.886;2023-08-30T22:19:40;5.20;;;1.90;;
11572;SDS011;5842;52.426;4.886;2023-08-30T22:22:07;4.65;;;2.08;;
11572;SDS011;5842;52.426;4.886;2023-08-30T22:24:35;62.38;;;44.75;;
11572;SDS011;5842;52.426;4.886;2023-08-30T22:27:02;5.32;;;2.40;;
11572;SDS011;5842;52.426;4.886;2023-08-30T22:29:30;88.00;;;47.35;;
11572;SDS011;5842;52.426;4.886;2023-08-30T22:31:59;85.20;;;46.73;;
11572;SDS011;5842;52.426;4.886;2023-08-30T22:34:27;71.10;;;43.42;;
11572;SDS011;5842;52.426;4.886;2023-08-30T22:36:55;16.23;;;13.45;;
11572;SDS011;5842;52.426;4.886;2023-08-30T22:39:22;22.52;;;20.33;;
11572;SDS011;5842;52.426;4.886;2023-08-30T22:41:50;59.45;;;40.67;;
11572;SDS011;5842;52.426;4.886;2023-08-30T22:44:17;25.35;;;22.65;;
11572;SDS011;5842;52.426;4.886;2023-08-30T22:46:45;79.72;;;46.20;;
11572;SDS011;5842;52.426;4.886;2023-08-30T22:49:14;3.55;;;1.92;;